Time;durP1;ratioP1;P1;durP2;ratioP2;P2;SDS_P1;SDS_P2;PMS_P1;PMS_P2;Temp;Humidity;BMP_temperature;BMP_pressure;BME280_temperature;BME280_humidity;BME280_pressure;Samples;Min_cycle;Max_cycle;Signal;HPM_P1;HPM_P2
2021/11/03 00:01:05;;;;;;;35.57;24.77;;;;;;;3.56;84.01;101481.72;5052620;28;20036;-60
2021/11/03 00:03:33;;;;;;;39.27;26.23;;;;;;;3.61;83.18;101488.38;5051953;28;20037;-60
2021/11/03 00:05:58;;;;;;;39.07;24.93;;;;;;;3.48;83.44;101445.38;5034012;28;20305;-59
2021/11/03 00:08:27;;;;;;;39.97;24.20;;;;;;;3.54;82.92;101452.84;5033926;28;20341;-60
2021/11/03 00:10:54;;;;;;;41.47;26.03;;;;;;;3.52;83.82;101453.91;5051632;28;20484;-60
2021/11/03 00:13:23;;;;;;;41.93;28.37;;;;;;;3.47;83.75;101445.44;5051833;28;20355;-62
2021/11/03 00:15:49;;;;;;;37.95;27.30;;;;;;;3.50;83.96;101450.53;5052768;28;20287;-59
2021/11/03 00:18:15;;;;;;;38.70;24.20;;;;;;;3.48;83.83;101441.88;5054193;28;20413;-62
2021/11/03 00:20:41;;;;;;;36.43;24.63;;;;;;;3.54;83.66;101441.47;5058353;28;20260;-60
2021/11/03 00:23:07;;;;;;;37.30;24.53;;;;;;;3.68;83.69;101454.56;5058304;28;20266;-60
2021/11/03 00:25:37;;;;;;;35.73;24.63;;;;;;;3.65;82.70;101446.88;5058011;28;20488;-60
2021/11/03 00:28:04;;;;;;;38.03;24.33;;;;;;;3.73;83.33;101460.38;5058324;28;20103;-62
2021/11/03 00:30:29;;;;;;;34.57;22.40;;;;;;;3.74;83.49;101454.16;5059707;28;20267;-62
2021/11/03 00:32:55;;;;;;;33.70;22.67;;;;;;;3.58;82.80;101414.84;5058449;28;20274;-60
2021/11/03 00:35:20;;;;;;;32.73;21.93;;;;;;;3.81;82.36;101458.09;5058188;28;20148;-60
2021/11/03 00:37:46;;;;;;;29.93;22.93;;;;;;;3.78;83.02;101465.38;5058106;28;20033;-61
2021/11/03 00:40:13;;;;;;;33.77;23.07;;;;;;;3.72;83.19;101462.16;5058096;28;20049;-60
2021/11/03 00:42:39;;;;;;;35.50;22.77;;;;;;;3.59;83.54;101452.56;5058151;28;20052;-60
2021/11/03 00:45:06;;;;;;;32.33;22.33;;;;;;;3.67;83.38;101466.06;5060229;28;20270;-61
2021/11/03 00:47:31;;;;;;;32.30;23.07;;;;;;;3.74;83.32;101467.34;5058131;28;20071;-61
2021/11/03 00:49:58;;;;;;;32.90;21.30;;;;;;;3.83;82.99;101465.91;5058200;28;20271;-61
2021/11/03 00:52:23;;;;;;;35.40;24.03;;;;;;;3.74;82.89;101446.25;5057999;28;20255;-62
2021/11/03 00:54:49;;;;;;;32.30;21.47;;;;;;;3.83;82.88;101456.19;5057905;28;20519;-60
2021/11/03 00:57:15;;;;;;;34.37;23.37;;;;;;;3.78;82.71;101437.22;5057991;28;20431;-61
2021/11/03 00:59:40;;;;;;;36.37;22.33;;;;;;;3.80;82.90;101440.59;5060230;28;20514;-61
2021/11/03 01:02:06;;;;;;;36.00;22.90;;;;;;;3.88;82.65;101438.28;5040266;28;20036;-61
2021/11/03 01:04:32;;;;;;;29.73;21.90;;;;;;;3.90;82.52;101423.22;5058016;28;20091;-60
2021/11/03 01:06:57;;;;;;;29.20;21.30;;;;;;;3.90;82.62;101423.22;5058054;28;20567;-60
2021/11/03 01:09:23;;;;;;;31.97;20.53;;;;;;;3.92;82.90;101433.66;5057887;28;20029;-63
2021/11/03 01:11:49;;;;;;;29.70;21.20;;;;;;;3.91;82.53;101440.72;5057980;28;20153;-61
2021/11/03 01:14:16;;;;;;;31.07;21.13;;;;;;;3.91;82.86;101429.34;5059902;28;20024;-61
2021/11/03 01:16:42;;;;;;;32.50;22.23;;;;;;;3.90;82.56;101415.31;5058908;28;20298;-60
2021/11/03 01:19:08;;;;;;;29.90;19.33;;;;;;;3.90;82.62;101422.38;5039902;28;20271;-62
2021/11/03 01:21:36;;;;;;;28.97;20.60;;;;;;;4.00;82.07;101434.81;5057852;28;20290;-60
2021/11/03 01:24:02;;;;;;;26.88;19.42;;;;;;;3.87;82.57;101415.53;5057799;28;20045;-63
2021/11/03 01:26:27;;;;;;;27.63;19.63;;;;;;;3.94;82.25;101429.13;5039889;28;20076;-60
2021/11/03 01:28:53;;;;;;;28.70;20.43;;;;;;;3.92;82.70;101445.03;5058287;28;20310;-60
2021/11/03 01:31:19;;;;;;;25.57;19.20;;;;;;;3.86;82.37;101416.47;5054354;28;20445;-62
2021/11/03 01:33:45;;;;;;;30.50;20.10;;;;;;;3.93;81.74;101420.38;5036553;28;20041;-62
2021/11/03 01:36:12;;;;;;;26.50;18.87;;;;;;;3.43;82.45;101332.41;5036332;28;20045;-60
2021/11/03 01:38:38;;;;;;;27.33;19.07;;;;;;;3.94;82.24;101421.22;5053939;28;20631;-61
2021/11/03 01:41:05;;;;;;;29.47;20.50;;;;;;;3.94;81.75;101419.41;5053786;28;20295;-60
2021/11/03 01:43:45;;;;;;;25.43;20.07;;;;;;;4.01;81.78;101423.31;5054705;28;20041;-61
2021/11/03 01:46:20;;;;;;;28.40;18.97;;;;;;;4.01;82.38;101425.97;5055745;28;20267;-60
2021/11/03 01:48:45;;;;;;;33.07;21.83;;;;;;;4.00;82.12;101424.28;5053995;28;20271;-60
2021/11/03 01:51:19;;;;;;;32.03;21.27;;;;;;;3.96;82.28;101411.41;5054243;28;20759;-60
2021/11/03 01:53:45;;;;;;;26.17;18.60;;;;;;;3.89;82.37;101394.34;5036258;28;20272;-60
2021/11/03 01:56:12;;;;;;;26.97;19.60;;;;;;;3.95;81.59;101392.13;5036430;28;20659;-61
2021/11/03 01:58:57;;;;;;;27.00;19.23;;;;;;;4.08;81.59;101415.03;5054173;28;20710;-61
2021/11/03 02:01:22;;;;;;;30.20;20.63;;;;;;;4.02;81.83;101396.00;5053738;28;20291;-61
2021/11/03 02:03:49;;;;;;;32.07;21.47;;;;;;;3.98;81.46;101410.34;5052766;28;20275;-61
2021/11/03 02:06:18;;;;;;;28.77;19.77;;;;;;;4.08;81.80;101415.88;5034747;28;20035;-59
2021/11/03 02:08:46;;;;;;;25.03;19.10;;;;;;;4.17;81.32;101414.38;5054405;28;20279;-60
2021/11/03 02:11:13;;;;;;;28.42;20.80;;;;;;;4.24;81.07;101411.22;5054868;28;20317;-60
2021/11/03 02:13:40;;;;;;;28.73;20.57;;;;;;;4.22;81.34;101393.81;5054270;28;20499;-61
2021/11/03 02:16:09;;;;;;;23.23;18.57;;;;;;;4.22;80.77;101396.44;5036827;28;20290;-61
2021/11/03 02:18:35;;;;;;;32.83;21.17;;;;;;;4.19;81.31;101401.94;5053915;28;20750;-61
2021/11/03 02:21:01;;;;;;;28.33;20.23;;;;;;;4.04;81.82;101388.00;5055147;28;20043;-60
2021/11/03 02:23:33;;;;;;;28.20;20.20;;;;;;;4.18;81.71;101402.88;5054878;28;20750;-61
2021/11/03 02:26:09;;;;;;;30.47;21.00;;;;;;;4.14;81.49;101398.78;5053744;28;20297;-58
2021/11/03 02:28:37;;;;;;;28.23;19.90;;;;;;;3.93;81.89;101365.03;5053947;28;20358;-61
2021/11/03 02:31:02;;;;;;;28.37;20.30;;;;;;;4.12;82.29;101388.34;5054740;28;20337;-60
2021/11/03 02:33:29;;;;;;;28.10;19.70;;;;;;;4.11;81.79;101394.56;5053028;28;20271;-63
2021/11/03 02:36:01;;;;;;;26.30;19.67;;;;;;;4.13;81.81;101383.91;5052774;28;20033;-60
2021/11/03 02:38:31;;;;;;;26.70;18.83;;;;;;;4.23;81.98;101393.69;5053359;28;20307;-60
2021/11/03 02:41:23;;;;;;;29.97;20.93;;;;;;;4.31;81.61;101387.88;5053123;28;20353;-62
2021/11/03 02:43:55;;;;;;;27.13;21.07;;;;;;;4.28;81.01;101380.19;5053494;28;20279;-62
2021/11/03 02:46:21;;;;;;;29.93;20.33;;;;;;;4.26;81.51;101380.31;5053492;28;20272;-62
2021/11/03 02:48:47;;;;;;;26.33;18.80;;;;;;;4.30;81.76;101383.56;5035297;28;20282;-61
2021/11/03 02:51:31;;;;;;;28.80;21.07;;;;;;;4.25;81.67;101375.97;5053135;28;20037;-61
2021/11/03 02:54:03;;;;;;;30.80;20.40;;;;;;;4.23;81.25;101363.84;5035331;28;20029;-60
2021/11/03 02:56:31;;;;;;;27.43;19.93;;;;;;;4.22;82.15;101372.72;5053232;28;20303;-60
2021/11/03 02:58:57;;;;;;;26.95;19.52;;;;;;;4.25;81.34;101378.63;5052856;28;20365;-59
2021/11/03 03:01:32;;;;;;;30.77;19.50;;;;;;;4.15;82.18;101353.00;5053504;28;20041;-62
2021/11/03 03:03:58;;;;;;;27.40;19.73;;;;;;;4.18;81.78;101361.53;5052282;28;20040;-59
2021/11/03 03:06:27;;;;;;;28.20;19.10;;;;;;;4.31;82.31;101374.69;5051566;28;20654;-58
2021/11/03 03:08:55;;;;;;;26.67;19.85;;;;;;;4.26;82.00;101371.56;5051925;28;20263;-59
2021/11/03 03:11:23;;;;;;;29.83;21.00;;;;;;;4.27;81.77;101374.06;5052279;28;20037;-60
2021/11/03 03:13:49;;;;;;;27.17;18.83;;;;;;;4.18;81.83;101358.91;5035064;28;20263;-61
2021/11/03 03:16:19;;;;;;;33.60;21.83;;;;;;;4.19;82.01;101355.31;5053715;28;20353;-60
2021/11/03 03:18:45;;;;;;;28.63;19.47;;;;;;;4.06;82.24;101324.66;5052738;28;20271;-60
2021/11/03 03:21:12;;;;;;;25.80;19.70;;;;;;;4.23;81.83;101340.13;5052587;28;20267;-59
2021/11/03 03:23:38;;;;;;;28.57;21.27;;;;;;;4.37;82.15;101361.13;5052460;28;20271;-61
2021/11/03 03:26:05;;;;;;;28.57;20.33;;;;;;;4.38;82.21;101369.88;5052563;28;20271;-59
2021/11/03 03:28:30;;;;;;;29.73;22.17;;;;;;;4.33;81.79;101356.97;5052290;28;20488;-59
2021/11/03 03:30:56;;;;;;;32.83;20.50;;;;;;;4.35;82.87;101352.47;5053680;28;20263;-60
2021/11/03 03:33:22;;;;;;;30.20;19.70;;;;;;;4.30;82.21;101338.75;5052731;28;20036;-60
2021/11/03 03:35:47;;;;;;;30.73;21.23;;;;;;;4.34;82.19;101337.59;5052380;28;20044;-60
2021/11/03 03:38:13;;;;;;;28.80;22.60;;;;;;;4.36;82.38;101338.34;5052305;28;20064;-60
2021/11/03 03:40:39;;;;;;;29.23;20.23;;;;;;;4.48;82.01;101355.91;5051950;28;20512;-60
2021/11/03 03:43:04;;;;;;;26.60;18.73;;;;;;;4.48;81.92;101345.38;5051992;28;20041;-59
2021/11/03 03:45:30;;;;;;;29.97;20.13;;;;;;;4.47;82.03;101348.09;5052944;28;20029;-60
2021/11/03 03:47:56;;;;;;;31.73;22.07;;;;;;;4.43;82.27;101342.22;5052244;28;20036;-60
2021/11/03 03:50:21;;;;;;;28.70;17.47;;;;;;;4.45;82.54;101335.03;5052127;28;20036;-59
2021/11/03 03:52:47;;;;;;;31.90;21.57;;;;;;;4.47;82.27;101337.56;5033942;28;20051;-60
2021/11/03 03:55:13;;;;;;;30.97;20.60;;;;;;;4.39;82.73;101335.47;5052021;28;20362;-60
2021/11/03 03:57:39;;;;;;;30.07;20.97;;;;;;;4.44;81.82;101341.25;5051878;28;20036;-60
2021/11/03 04:00:11;;;;;;;28.77;20.33;;;;;;;4.21;82.77;101298.06;5052540;28;20123;-61
2021/11/03 04:02:37;;;;;;;28.87;20.43;;;;;;;4.42;82.60;101340.53;5052450;28;20040;-60
2021/11/03 04:05:05;;;;;;;29.57;22.10;;;;;;;4.40;82.45;101342.44;5051861;28;20268;-59
2021/11/03 04:07:30;;;;;;;29.27;20.80;;;;;;;4.45;82.41;101340.31;5053367;28;20040;-60
2021/11/03 04:09:56;;;;;;;31.00;21.63;;;;;;;4.28;82.07;101312.47;5053708;28;20032;-59
2021/11/03 04:12:21;;;;;;;29.50;22.03;;;;;;;4.53;82.33;101343.22;5053536;28;20043;-57
2021/11/03 04:14:47;;;;;;;26.13;20.10;;;;;;;4.49;82.08;101325.09;5052912;28;20045;-59
2021/11/03 04:17:12;;;;;;;28.23;19.00;;;;;;;4.54;81.74;101329.09;5051684;28;20040;-62
2021/11/03 04:19:38;;;;;;;26.20;20.07;;;;;;;4.60;81.61;101333.91;5051637;28;20037;-63
2021/11/03 04:22:04;;;;;;;25.90;18.93;;;;;;;4.58;81.62;101334.97;5051486;28;20131;-61
2021/11/03 04:24:30;;;;;;;27.73;18.70;;;;;;;4.60;81.40;101343.63;5051714;28;20507;-59
2021/11/03 04:26:55;;;;;;;31.40;20.77;;;;;;;4.55;81.78;101333.41;5051487;28;20354;-61
2021/11/03 04:29:21;;;;;;;29.20;20.10;;;;;;;4.59;81.14;101334.03;5053176;28;20040;-62
2021/11/03 04:31:48;;;;;;;27.10;18.57;;;;;;;4.57;81.90;101336.78;5053579;28;20403;-61
2021/11/03 04:34:14;;;;;;;28.10;19.60;;;;;;;4.47;82.43;101316.47;5053530;28;20264;-61
2021/11/03 04:36:39;;;;;;;27.90;21.00;;;;;;;4.57;81.69;101336.78;5034999;28;20778;-61
2021/11/03 04:39:10;;;;;;;27.80;20.57;;;;;;;4.61;81.79;101332.97;5033587;28;20416;-61
2021/11/03 04:41:36;;;;;;;28.83;19.70;;;;;;;4.50;82.30;101327.63;5050508;28;20064;-61
2021/11/03 04:44:01;;;;;;;31.70;20.90;;;;;;;4.48;83.16;101321.63;5051430;28;20688;-62
2021/11/03 04:46:27;;;;;;;30.40;21.53;;;;;;;4.48;83.19;101332.19;5052285;28;20025;-61
2021/11/03 04:48:53;;;;;;;29.77;20.17;;;;;;;4.34;83.59;101306.81;5050381;28;20136;-61
2021/11/03 04:51:19;;;;;;;32.10;20.53;;;;;;;4.42;83.26;101314.16;5051464;28;20029;-60
2021/11/03 04:53:45;;;;;;;30.67;21.10;;;;;;;4.53;83.40;101323.94;5051340;28;20500;-58
2021/11/03 04:56:12;;;;;;;28.90;21.77;;;;;;;4.51;83.50;101321.41;5051103;28;20306;-59
2021/11/03 04:58:38;;;;;;;28.23;20.13;;;;;;;4.54;83.95;101315.91;5051038;28;20111;-59
2021/11/03 05:01:04;;;;;;;29.53;20.80;;;;;;;4.58;83.55;101322.63;5052521;28;20291;-60
2021/11/03 05:03:29;;;;;;;30.60;21.27;;;;;;;4.62;82.92;101318.81;5051470;28;20032;-60
2021/11/03 05:05:56;;;;;;;32.60;22.57;;;;;;;4.56;82.87;101321.91;5053481;28;20040;-62
2021/11/03 05:08:22;;;;;;;29.50;21.43;;;;;;;4.65;83.08;101323.91;5054758;28;20036;-61
2021/11/03 05:10:48;;;;;;;27.97;20.03;;;;;;;4.64;83.29;101314.31;5055154;28;20592;-60
2021/11/03 05:13:13;;;;;;;31.07;21.07;;;;;;;4.56;82.70;101289.41;5054883;28;20454;-65
2021/11/03 05:15:39;;;;;;;37.97;20.60;;;;;;;4.64;82.92;101311.66;5056520;28;20047;-60
2021/11/03 05:18:06;;;;;;;31.20;21.40;;;;;;;4.60;83.19;101318.09;5055052;28;20036;-61
2021/11/03 05:20:32;;;;;;;31.90;21.57;;;;;;;4.53;82.60;101303.66;5055249;28;20484;-60
2021/11/03 05:22:58;;;;;;;31.93;21.23;;;;;;;4.58;83.15;101308.59;5055382;28;20259;-60
2021/11/03 05:25:27;;;;;;;29.57;21.67;;;;;;;4.59;83.42;101313.78;5037364;28;20065;-63
2021/11/03 05:27:53;;;;;;;33.13;22.95;;;;;;;4.49;83.01;101294.28;5037290;28;20056;-59
2021/11/03 05:30:20;;;;;;;34.87;21.33;;;;;;;4.57;82.75;101301.66;5039116;28;20124;-59
2021/11/03 05:32:46;;;;;;;31.00;22.57;;;;;;;4.62;82.99;101324.09;5054853;28;20271;-60
2021/11/03 05:35:12;;;;;;;36.17;22.67;;;;;;;4.65;83.00;101321.25;5054640;28;20290;-60
2021/11/03 05:37:39;;;;;;;32.30;22.67;;;;;;;4.47;83.21;101280.38;5054444;28;20785;-60
2021/11/03 05:40:08;;;;;;;35.17;22.30;;;;;;;4.02;83.34;101206.25;5053991;28;20053;-61
2021/11/03 05:42:34;;;;;;;37.50;21.37;;;;;;;4.66;83.66;101307.13;5054069;28;20287;-60
2021/11/03 05:44:59;;;;;;;30.27;20.30;;;;;;;4.62;82.69;101305.63;5055751;28;20272;-60
2021/11/03 05:47:28;;;;;;;32.43;22.90;;;;;;;4.61;84.02;101314.50;5036525;28;20173;-61
2021/11/03 05:49:54;;;;;;;35.80;21.77;;;;;;;4.61;83.72;101309.22;5054676;28;20033;-61
2021/11/03 05:52:20;;;;;;;31.70;21.50;;;;;;;4.70;83.25;101309.53;5054136;28;20375;-60
2021/11/03 05:54:46;;;;;;;35.93;23.93;;;;;;;4.60;83.55;101293.50;5053751;28;20602;-60
2021/11/03 05:57:22;;;;;;;33.60;22.53;;;;;;;4.64;83.44;101309.03;5055001;28;20295;-61
2021/11/03 05:59:48;;;;;;;36.80;22.27;;;;;;;4.64;83.84;101309.03;5054977;28;20037;-64
2021/11/03 06:02:14;;;;;;;32.70;22.60;;;;;;;4.68;83.64;101314.94;5054438;28;20264;-61
2021/11/03 06:04:39;;;;;;;31.27;23.13;;;;;;;4.66;83.18;101312.41;5054926;28;20267;-61
2021/11/03 06:07:05;;;;;;;36.67;24.13;;;;;;;4.68;83.58;101314.94;5054870;28;20041;-59
2021/11/03 06:09:32;;;;;;;31.20;21.93;;;;;;;4.70;83.54;101301.63;5056626;28;20086;-61
2021/11/03 06:11:57;;;;;;;39.60;23.53;;;;;;;4.68;83.87;101300.88;5054298;28;20132;-61
2021/11/03 06:14:23;;;;;;;34.80;23.47;;;;;;;4.75;84.09;101300.31;5036473;28;20287;-61
2021/11/03 06:16:49;;;;;;;38.77;25.47;;;;;;;4.75;84.09;101308.25;5054307;28;20041;-60
2021/11/03 06:19:15;;;;;;;33.97;22.23;;;;;;;4.70;83.44;101296.34;5035780;28;20626;-60
2021/11/03 06:21:40;;;;;;;34.83;24.20;;;;;;;4.69;84.28;101303.41;5053580;28;20072;-60
2021/11/03 06:24:06;;;;;;;35.37;25.20;;;;;;;4.49;83.42;101254.72;5053467;28;20036;-60
2021/11/03 06:26:32;;;;;;;34.40;22.50;;;;;;;4.77;84.08;101297.56;5035719;28;20130;-61
2021/11/03 06:28:57;;;;;;;32.87;24.80;;;;;;;4.72;83.10;101283.88;5036404;28;20040;-61
2021/11/03 06:31:23;;;;;;;37.00;23.07;;;;;;;4.77;83.55;101292.28;5056752;28;20067;-59
2021/11/03 06:33:49;;;;;;;35.40;23.23;;;;;;;4.60;83.24;101265.31;5039212;28;20483;-60
2021/11/03 06:36:15;;;;;;;35.03;23.17;;;;;;;4.75;83.04;101273.94;5054249;28;20033;-59
2021/11/03 06:38:41;;;;;;;31.67;22.90;;;;;;;4.90;83.03;101290.41;5054031;28;20275;-60
2021/11/03 06:41:10;;;;;;;37.80;23.73;;;;;;;4.90;82.82;101287.78;5053825;28;20083;-60
2021/11/03 06:43:36;;;;;;;30.45;22.30;;;;;;;4.86;82.56;101275.78;5053911;28;20047;-62
2021/11/03 06:46:03;;;;;;;32.53;24.30;;;;;;;4.85;82.69;101276.72;5054736;28;20036;-60
2021/11/03 06:48:28;;;;;;;31.47;21.53;;;;;;;4.81;82.20;101260.28;5054422;28;20071;-60
2021/11/03 06:50:53;;;;;;;30.33;21.37;;;;;;;4.90;81.89;101277.22;5054920;28;20271;-62
2021/11/03 06:53:22;;;;;;;35.50;21.60;;;;;;;4.86;82.67;101267.84;5055730;28;20033;-61
2021/11/03 06:55:49;;;;;;;30.77;22.02;;;;;;;4.83;82.18;101262.81;5053765;28;20049;-60
2021/11/03 06:58:15;;;;;;;31.33;20.80;;;;;;;4.66;81.46;101232.41;5053325;28;20037;-62
2021/11/03 07:00:43;;;;;;;31.37;20.87;;;;;;;4.90;82.21;101277.22;5054818;28;20029;-60
2021/11/03 07:03:09;;;;;;;31.75;22.23;;;;;;;4.84;81.76;101261.84;5053214;28;20278;-60
2021/11/03 07:05:36;;;;;;;36.50;26.07;;;;;;;4.88;82.13;101273.84;5053045;28;20041;-59
2021/11/03 07:08:02;;;;;;;27.37;19.70;;;;;;;4.84;81.09;101261.84;5053057;28;20028;-61
2021/11/03 07:10:31;;;;;;;27.10;19.13;;;;;;;4.97;81.41;101283.75;5052998;28;20754;-60
2021/11/03 07:12:57;;;;;;;;;;;;;;;5.03;81.49;101278.00;5053348;28;20063;-61
2021/11/03 07:15:24;;;;;;;31.37;20.33;;;;;;;4.81;81.27;101240.97;5053664;28;20264;-61
2021/11/03 07:17:51;;;;;;;29.90;19.93;;;;;;;5.04;80.81;101274.41;5034940;28;20144;-60
2021/11/03 07:20:17;;;;;;;24.57;18.17;;;;;;;5.05;80.43;101270.81;5052948;28;20290;-61
2021/11/03 07:22:43;;;;;;;26.10;19.70;;;;;;;5.13;80.85;101279.00;5052767;28;20291;-59
2021/11/03 07:25:12;;;;;;;31.20;21.93;;;;;;;5.15;80.13;101270.97;5052704;28;20358;-60
2021/11/03 07:27:38;;;;;;;27.13;19.77;;;;;;;5.13;80.34;101267.59;5051917;28;20128;-61
2021/11/03 07:30:05;;;;;;;29.07;20.40;;;;;;;5.21;79.86;101276.66;5053294;28;20557;-60
2021/11/03 07:32:30;;;;;;;27.10;18.73;;;;;;;5.13;79.59;101272.88;5052894;28;20036;-60
2021/11/03 07:34:56;;;;;;;27.57;18.60;;;;;;;5.14;80.18;101275.41;5052607;28;20067;-59
2021/11/03 07:37:21;;;;;;;25.80;19.90;;;;;;;5.18;79.63;101276.84;5052470;28;20040;-59
2021/11/03 07:39:47;;;;;;;33.57;22.77;;;;;;;5.16;80.35;101276.13;5052410;28;20045;-61
2021/11/03 07:42:13;;;;;;;26.13;18.47;;;;;;;5.20;79.89;101277.59;5052757;28;20041;-61
2021/11/03 07:44:39;;;;;;;25.90;19.67;;;;;;;5.06;80.04;101266.38;5053399;28;20355;-60
2021/11/03 07:47:04;;;;;;;28.57;19.73;;;;;;;5.15;79.88;101292.94;5052958;28;20061;-62
2021/11/03 07:49:30;;;;;;;28.97;19.97;;;;;;;5.13;79.79;101288.72;5034647;28;20033;-60
2021/11/03 07:51:56;;;;;;;30.50;20.80;;;;;;;5.12;79.86;101297.59;5034591;28;20480;-61
2021/11/03 07:54:22;;;;;;;32.43;19.83;;;;;;;5.09;79.57;101292.56;5034699;28;20033;-60
2021/11/03 07:56:47;;;;;;;29.80;21.67;;;;;;;5.09;79.65;101290.75;5052059;28;20182;-59
2021/11/03 07:59:15;;;;;;;29.87;19.50;;;;;;;4.96;80.25;101276.78;5052262;28;20358;-61
2021/11/03 08:01:41;;;;;;;30.98;21.13;;;;;;;5.06;79.81;101292.78;5052362;28;20041;-60
2021/11/03 08:04:08;;;;;;;30.47;21.60;;;;;;;4.97;79.69;101268.75;5051821;28;20167;-61
2021/11/03 08:06:34;;;;;;;33.07;19.77;;;;;;;5.19;80.04;101294.38;5052526;28;20446;-61
2021/11/03 08:09:05;;;;;;;29.83;19.67;;;;;;;5.17;79.46;101275.16;5052207;28;20354;-65
2021/11/03 08:11:50;;;;;;;31.60;20.47;;;;;;;5.17;79.74;101285.72;5051920;28;20041;-62
2021/11/03 08:14:19;;;;;;;34.90;22.23;;;;;;;5.19;79.84;101289.09;5052347;28;20279;-60
2021/11/03 08:16:48;;;;;;;34.17;22.55;;;;;;;5.06;79.77;101251.38;5052439;28;20299;-61
2021/11/03 08:19:14;;;;;;;31.17;19.93;;;;;;;5.24;79.81;101278.22;5034014;28;20045;-62
2021/11/03 08:21:39;;;;;;;29.77;20.73;;;;;;;5.26;79.63;101277.13;5033968;28;20282;-61
2021/11/03 08:24:05;;;;;;;30.97;21.03;;;;;;;5.34;79.01;101275.72;5051710;28;20063;-61
2021/11/03 08:26:31;;;;;;;34.80;21.37;;;;;;;5.44;79.16;101272.25;5052139;28;20507;-61
2021/11/03 08:28:56;;;;;;;38.20;21.27;;;;;;;5.45;78.53;101258.06;5051775;28;20033;-61
2021/11/03 08:31:22;;;;;;;33.00;22.17;;;;;;;5.53;78.82;101258.34;5052856;28;20035;-61
2021/11/03 08:33:48;;;;;;;30.80;19.70;;;;;;;5.54;78.49;101260.03;5051478;28;20045;-62
2021/11/03 08:36:15;;;;;;;35.87;21.20;;;;;;;5.59;78.41;101257.88;5051493;28;20048;-61
2021/11/03 08:38:41;;;;;;;35.70;20.77;;;;;;;5.69;77.69;101252.72;5052143;28;20407;-62
2021/11/03 08:41:07;;;;;;;33.27;20.27;;;;;;;5.61;77.38;101233.97;5055732;28;20060;-60
2021/11/03 08:43:35;;;;;;;32.63;21.53;;;;;;;5.67;78.02;101248.50;5055304;28;20041;-61
2021/11/03 08:46:01;;;;;;;32.67;21.13;;;;;;;5.53;77.85;101228.44;5056854;28;20125;-63
2021/11/03 08:48:27;;;;;;;33.63;20.93;;;;;;;5.59;77.87;101241.19;5055522;28;20123;-62
2021/11/03 08:50:53;;;;;;;32.87;20.67;;;;;;;5.58;78.01;101237.69;5055638;28;20140;-61
2021/11/03 08:53:19;;;;;;;26.63;18.30;;;;;;;5.66;77.86;101244.19;5055337;28;20049;-62
2021/11/03 08:55:47;;;;;;;34.60;19.57;;;;;;;5.66;78.53;101244.19;5053752;28;20037;-62
2021/11/03 08:58:14;;;;;;;38.10;22.13;;;;;;;5.67;78.04;101251.97;5054994;28;20077;-59
2021/11/03 09:00:42;;;;;;;36.33;23.03;;;;;;;5.59;77.94;101233.25;5039037;28;20086;-60
2021/11/03 09:03:10;;;;;;;31.03;19.73;;;;;;;5.62;77.62;101238.28;5055209;28;20056;-61
2021/11/03 09:05:36;;;;;;;32.65;19.38;;;;;;;5.73;77.86;101240.94;5055435;28;20743;-61
2021/11/03 09:08:02;;;;;;;34.63;21.40;;;;;;;5.77;77.54;101252.94;5055202;28;20040;-60
2021/11/03 09:10:32;;;;;;;31.23;21.27;;;;;;;5.69;77.67;101238.66;5054979;28;20033;-60
2021/11/03 09:12:58;;;;;;;34.80;21.07;;;;;;;5.67;77.60;101246.69;5055206;28;20496;-60
2021/11/03 09:15:24;;;;;;;29.83;20.90;;;;;;;5.60;77.95;101225.19;5056890;28;20115;-60
2021/11/03 09:17:49;;;;;;;36.90;21.63;;;;;;;5.51;78.03;101225.09;5054712;28;20564;-61
2021/11/03 09:20:17;;;;;;;35.73;22.23;;;;;;;5.60;78.44;101219.06;5054824;28;20181;-61
2021/11/03 09:22:43;;;;;;;30.93;21.00;;;;;;;5.48;78.26;101197.06;5054733;28;20091;-61
2021/11/03 09:25:13;;;;;;;33.63;20.87;;;;;;;5.65;77.98;101221.34;5053524;28;20086;-61
2021/11/03 09:27:39;;;;;;;31.87;20.27;;;;;;;5.62;77.83;101205.75;5054862;28;20142;-60
2021/11/03 09:30:07;;;;;;;33.77;19.77;;;;;;;5.78;77.96;101222.94;5055863;28;20036;-61
2021/11/03 09:32:35;;;;;;;32.90;20.77;;;;;;;5.73;77.69;101197.81;5054982;28;20041;-61
2021/11/03 09:35:01;;;;;;;29.27;20.42;;;;;;;5.73;77.58;101203.09;5036611;28;20044;-61
2021/11/03 09:37:30;;;;;;;34.50;19.90;;;;;;;5.80;77.06;101201.66;5054172;28;20044;-61
2021/11/03 09:39:57;;;;;;;37.20;22.48;;;;;;;5.92;77.68;101213.94;5054004;28;20063;-61
2021/11/03 09:42:25;;;;;;;36.13;21.93;;;;;;;5.94;77.36;101197.94;5054504;28;20092;-61
2021/11/03 09:44:55;;;;;;;29.40;20.20;;;;;;;6.08;77.17;101197.72;5056193;28;20040;-60
2021/11/03 09:47:30;;;;;;;33.87;20.40;;;;;;;6.15;76.52;101204.19;5054078;28;20503;-60
2021/11/03 09:50:00;;;;;;;32.23;19.33;;;;;;;6.21;76.40;101199.22;5054335;28;20068;-60
2021/11/03 09:52:37;;;;;;;32.40;23.77;;;;;;;6.24;76.39;101202.59;5053539;28;20519;-61
2021/11/03 09:55:19;;;;;;;30.13;20.43;;;;;;;6.21;76.74;101190.44;5054295;28;20124;-61
2021/11/03 09:57:54;;;;;;;31.13;19.27;;;;;;;6.23;76.34;101196.47;5054317;28;20460;-62
2021/11/03 10:00:42;;;;;;;29.83;20.33;;;;;;;6.25;76.30;101186.59;5054311;28;20053;-60
2021/11/03 10:03:20;;;;;;;31.70;21.00;;;;;;;6.29;76.09;101187.19;5054263;28;20047;-65
2021/11/03 10:06:06;;;;;;;32.87;21.20;;;;;;;6.25;75.56;101186.59;5054146;28;20033;-62
2021/11/03 10:08:37;;;;;;;30.87;20.80;;;;;;;6.25;76.30;101183.94;5053926;28;20037;-63
2021/11/03 10:11:24;;;;;;;31.57;21.60;;;;;;;6.29;76.01;101184.53;5053420;28;20514;-60
2021/11/03 10:13:52;;;;;;;36.83;20.67;;;;;;;6.22;76.35;101176.25;5053890;28;20120;-61
2021/11/03 10:16:17;;;;;;;31.55;18.98;;;;;;;6.29;76.09;101182.72;5053801;28;20048;-60
2021/11/03 10:18:52;;;;;;;28.57;19.10;;;;;;;6.31;76.31;101188.72;5035295;28;20037;-61
2021/11/03 10:21:31;;;;;;;26.67;17.53;;;;;;;6.31;76.58;101180.81;5053634;28;20174;-59
2021/11/03 10:24:00;;;;;;;29.73;19.93;;;;;;;6.31;76.66;101172.88;5053682;28;20033;-60
2021/11/03 10:27:01;;;;;;;;;;;;;;;6.37;76.62;101172.38;5054219;28;20040;-62
2021/11/03 10:29:33;;;;;;;45.97;25.20;;;;;;;6.21;76.14;101154.28;4976725;28;20112;-61
2021/11/03 10:32:07;;;;;;;43.43;24.40;;;;;;;6.31;76.40;101161.44;5042709;28;20050;-61
2021/11/03 10:34:32;;;;;;;36.60;22.53;;;;;;;6.30;76.66;101165.91;5054124;28;20431;-60
2021/11/03 10:37:04;;;;;;;32.03;20.10;;;;;;;6.36;76.65;101168.06;5055194;28;20139;-61
2021/11/03 10:40:05;;;;;;;33.50;19.97;;;;;;;6.36;76.34;101149.53;5036191;28;20091;-60
2021/11/03 10:42:46;;;;;;;28.07;18.50;;;;;;;6.49;76.30;101144.91;5052807;28;20126;-61
2021/11/03 10:45:32;;;;;;;33.93;23.80;;;;;;;6.59;75.92;101142.31;5054411;28;20037;-61
2021/11/03 10:48:06;;;;;;;32.03;18.80;;;;;;;6.71;75.78;101153.72;5053002;28;20040;-61
2021/11/03 10:50:57;;;;;;;30.27;18.77;;;;;;;6.79;75.29;101140.69;5052844;28;20475;-62
2021/11/03 10:53:36;;;;;;;28.43;19.13;;;;;;;6.83;75.70;101131.50;5053898;28;20505;-62
2021/11/03 10:56:01;;;;;;;;;;;;;;;6.90;75.62;101132.66;5055013;28;20036;-62
2021/11/03 10:58:30;;;;;;;27.10;18.20;;;;;;;6.83;74.44;101127.03;5054525;28;20015;-61
2021/11/03 11:01:00;;;;;;;29.58;20.45;;;;;;;6.75;74.90;101115.44;5053499;28;20519;-60
2021/11/03 11:03:42;;;;;;;29.13;18.87;;;;;;;6.79;75.57;101122.13;5052266;28;20037;-62
2021/11/03 11:06:22;;;;;;;28.20;20.00;;;;;;;6.85;75.56;101118.97;5052814;28;20032;-60
2021/11/03 11:09:25;;;;;;;28.13;19.33;;;;;;;6.82;76.05;101108.66;5052898;28;20037;-60
2021/11/03 11:11:56;;;;;;;26.00;17.90;;;;;;;6.72;75.66;101105.09;5047955;28;20040;-61
2021/11/03 11:14:24;;;;;;;27.03;17.60;;;;;;;6.69;76.29;101105.38;5053700;28;20052;-61
2021/11/03 11:17:01;;;;;;;27.40;18.40;;;;;;;6.73;76.17;101109.44;5051394;28;20033;-62
2021/11/03 11:19:54;;;;;;;24.23;16.47;;;;;;;6.72;76.06;101115.69;5052514;28;20045;-64
2021/11/03 11:22:43;;;;;;;27.37;17.43;;;;;;;6.60;75.90;101095.53;5052926;28;20060;-61